Time;durP1;ratioP1;P1;durP2;ratioP2;P2;SDS_P1;SDS_P2;PMS_P1;PMS_P2;Temp;Humidity;BMP_temperature;BMP_pressure;BME280_temperature;BME280_humidity;BME280_pressure;Samples;Min_cycle;Max_cycle;Signal;HPM_P1;HPM_P2
2022/03/31 00:00:49;;;;;;;32.03;21.27;;;8.90;99.90;;;;;;5010145;28;20943;-69
2022/03/31 00:03:17;;;;;;;26.30;20.87;;;8.90;99.90;;;;;;5008924;28;20442;-67
2022/03/31 00:05:44;;;;;;;27.87;21.00;;;8.90;99.90;;;;;;5010540;28;20450;-66
2022/03/31 00:08:14;;;;;;;31.33;22.77;;;8.90;99.90;;;;;;5010156;28;20491;-67
2022/03/31 00:10:45;;;;;;;25.83;21.30;;;8.90;99.90;;;;;;5009934;28;20958;-68
2022/03/31 00:13:14;;;;;;;29.03;21.10;;;8.90;99.90;;;;;;5011110;28;20487;-68
2022/03/31 00:15:40;;;;;;;27.47;20.87;;;9.00;99.90;;;;;;5014542;28;20437;-68
2022/03/31 00:18:07;;;;;;;28.00;22.10;;;8.90;99.90;;;;;;5013369;28;20444;-68
2022/03/31 00:20:33;;;;;;;27.63;22.30;;;8.90;99.90;;;;;;5014154;28;20453;-68
2022/03/31 00:22:58;;;;;;;26.60;19.63;;;8.90;99.90;;;;;;5012652;28;20460;-67
2022/03/31 00:25:24;;;;;;;28.23;21.57;;;8.90;99.90;;;;;;5013298;28;20911;-68
2022/03/31 00:27:50;;;;;;;29.00;22.90;;;8.90;99.90;;;;;;5015024;28;20649;-68
2022/03/31 00:30:16;;;;;;;30.33;21.63;;;8.80;99.90;;;;;;5012617;28;20182;-68
2022/03/31 00:32:42;;;;;;;29.40;23.90;;;8.70;99.90;;;;;;5013473;28;20433;-68
2022/03/31 00:35:12;;;;;;;33.10;26.38;;;8.80;99.90;;;;;;5013070;28;20438;-67
2022/03/31 00:37:42;;;;;;;34.13;23.70;;;8.70;99.90;;;;;;5013341;28;20171;-67
2022/03/31 00:40:09;;;;;;;28.93;21.73;;;8.60;99.90;;;;;;5010647;28;20512;-69
2022/03/31 00:42:43;;;;;;;33.23;24.57;;;8.60;99.90;;;;;;5013443;28;20433;-69
2022/03/31 00:45:17;;;;;;;30.23;22.20;;;8.70;99.90;;;;;;5027746;28;20457;-67
2022/03/31 00:47:42;;;;;;;25.57;20.17;;;8.50;99.90;;;;;;5004376;28;20436;-68
2022/03/31 00:50:11;;;;;;;25.87;20.73;;;8.50;99.90;;;;;;5010501;28;20437;-69
2022/03/31 00:52:37;;;;;;;30.20;22.47;;;8.40;99.90;;;;;;5013191;28;20179;-69
2022/03/31 00:55:03;;;;;;;27.17;20.80;;;8.50;99.90;;;;;;5013084;28;20465;-68
2022/03/31 00:57:30;;;;;;;28.97;21.97;;;8.50;99.90;;;;;;5013118;28;20457;-69
2022/03/31 00:59:57;;;;;;;25.10;20.40;;;8.40;99.90;;;;;;5014724;28;20440;-68
2022/03/31 01:02:25;;;;;;;22.60;20.17;;;8.40;99.90;;;;;;5011464;28;21051;-69
2022/03/31 01:04:51;;;;;;;27.40;21.60;;;8.30;99.90;;;;;;5012569;28;20476;-69
2022/03/31 01:07:17;;;;;;;30.13;20.97;;;8.30;99.90;;;;;;5012604;28;20438;-68
2022/03/31 01:09:42;;;;;;;30.27;22.37;;;8.20;99.90;;;;;;5013293;28;20436;-67
2022/03/31 01:12:08;;;;;;;29.47;23.00;;;8.20;99.90;;;;;;5013083;28;20237;-67
2022/03/31 01:14:34;;;;;;;32.00;24.77;;;8.30;99.90;;;;;;5013326;28;20269;-68
2022/03/31 01:17:00;;;;;;;25.20;19.47;;;8.30;99.90;;;;;;5013731;28;20441;-68
2022/03/31 01:19:26;;;;;;;29.00;20.27;;;8.30;99.90;;;;;;5011430;28;20191;-66
2022/03/31 01:21:51;;;;;;;29.50;22.63;;;8.30;99.90;;;;;;5013749;28;20477;-67
2022/03/31 01:24:18;;;;;;;28.30;22.10;;;8.40;99.90;;;;;;5013412;28;20462;-68
2022/03/31 01:26:44;;;;;;;28.00;21.87;;;8.40;99.90;;;;;;5010918;28;20238;-67
2022/03/31 01:29:10;;;;;;;27.83;21.00;;;8.50;99.90;;;;;;5011569;28;20884;-69
2022/03/31 01:31:38;;;;;;;26.87;21.90;;;8.40;99.90;;;;;;5012471;28;20641;-69
2022/03/31 01:34:05;;;;;;;27.17;22.33;;;8.40;99.90;;;;;;5013777;28;20461;-68
2022/03/31 01:36:31;;;;;;;27.60;21.47;;;8.40;99.90;;;;;;5007713;28;20437;-69
2022/03/31 01:38:57;;;;;;;30.43;22.07;;;8.50;99.90;;;;;;5012545;28;20448;-68
2022/03/31 01:41:23;;;;;;;25.93;20.87;;;8.50;99.90;;;;;;5012918;28;20831;-68
2022/03/31 01:43:49;;;;;;;25.53;19.50;;;8.50;99.90;;;;;;5011371;28;20682;-68
2022/03/31 01:46:14;;;;;;;27.27;21.10;;;8.50;99.90;;;;;;5011673;28;20445;-69
2022/03/31 01:48:40;;;;;;;26.27;18.50;;;8.40;99.90;;;;;;5008504;28;20176;-68
2022/03/31 01:51:07;;;;;;;26.03;18.03;;;8.30;99.90;;;;;;5009553;28;20544;-69
2022/03/31 01:53:35;;;;;;;23.33;19.20;;;8.30;99.90;;;;;;5012823;28;20210;-68
2022/03/31 01:56:00;;;;;;;25.37;18.83;;;8.20;99.90;;;;;;5011917;28;20445;-68
2022/03/31 01:58:26;;;;;;;22.57;17.20;;;8.20;99.90;;;;;;5012456;28;20445;-69
2022/03/31 02:00:51;;;;;;;24.03;18.73;;;8.10;99.90;;;;;;5011939;28;20626;-68
2022/03/31 02:03:18;;;;;;;20.33;16.57;;;8.10;99.90;;;;;;5011766;28;20289;-69
2022/03/31 02:05:44;;;;;;;24.10;18.80;;;8.10;99.90;;;;;;5013417;28;20548;-68
2022/03/31 02:08:09;;;;;;;19.37;16.60;;;8.10;99.90;;;;;;5010755;28;20451;-67
2022/03/31 02:10:35;;;;;;;21.43;16.27;;;8.10;99.90;;;;;;5012972;28;20183;-68
2022/03/31 02:13:01;;;;;;;20.97;17.40;;;8.00;99.90;;;;;;5011482;28;20207;-68
2022/03/31 02:15:29;;;;;;;21.70;16.10;;;8.00;99.90;;;;;;5009354;28;20386;-68
2022/03/31 02:17:55;;;;;;;22.10;18.40;;;8.00;99.90;;;;;;5011717;28;20450;-64
2022/03/31 02:20:20;;;;;;;20.30;16.03;;;8.00;99.90;;;;;;5011683;28;20441;-66
2022/03/31 02:22:46;;;;;;;22.80;18.67;;;8.10;99.90;;;;;;5012160;28;20650;-67
2022/03/31 02:25:12;;;;;;;22.50;18.80;;;8.10;99.90;;;;;;5011903;28;20469;-66
2022/03/31 02:27:38;;;;;;;23.90;19.20;;;8.10;99.90;;;;;;5009885;28;20607;-67
2022/03/31 02:30:06;;;;;;;21.00;17.57;;;8.10;99.90;;;;;;5011925;28;20183;-67
2022/03/31 02:32:32;;;;;;;21.03;17.57;;;8.10;99.90;;;;;;5011844;28;20437;-68
2022/03/31 02:34:58;;;;;;;21.97;17.90;;;8.10;99.90;;;;;;5010050;28;20468;-66
2022/03/31 02:37:23;;;;;;;19.60;16.43;;;8.10;99.90;;;;;;5011317;28;20437;-69
2022/03/31 02:39:49;;;;;;;21.10;17.03;;;8.20;99.90;;;;;;5009616;28;20532;-68
2022/03/31 02:42:16;;;;;;;25.37;18.53;;;8.20;99.90;;;;;;5008200;28;20214;-68
2022/03/31 02:44:42;;;;;;;22.80;18.10;;;8.30;99.90;;;;;;5010675;28;20233;-68
2022/03/31 02:47:09;;;;;;;21.87;17.97;;;8.20;99.90;;;;;;5010814;28;20445;-68
2022/03/31 02:49:34;;;;;;;21.90;16.20;;;8.20;99.90;;;;;;5011406;28;20579;-68
2022/03/31 02:52:01;;;;;;;22.70;18.47;;;8.20;99.90;;;;;;5010817;28;20532;-68
2022/03/31 02:57:11;;;;;;;21.17;17.63;;;8.30;99.90;;;;;;5008982;28;20487;-68
2022/03/31 02:59:36;;;;;;;20.30;17.00;;;8.30;99.90;;;;;;5011300;28;20438;-68
2022/03/31 03:02:02;;;;;;;20.27;16.93;;;8.30;99.90;;;;;;5012086;28;20202;-68
2022/03/31 03:04:28;;;;;;;20.60;17.57;;;8.20;99.90;;;;;;5010901;28;20202;-68
2022/03/31 03:06:53;;;;;;;22.20;16.57;;;8.20;99.90;;;;;;5010978;28;20179;-69
2022/03/31 03:09:19;;;;;;;24.10;18.40;;;8.10;99.90;;;;;;5011187;28;20564;-68
2022/03/31 03:11:46;;;;;;;20.07;16.37;;;8.20;99.90;;;;;;5011951;28;20217;-68
2022/03/31 03:14:13;;;;;;;22.13;16.40;;;8.20;99.90;;;;;;5010632;28;20469;-68
2022/03/31 03:16:40;;;;;;;22.00;17.87;;;8.10;99.90;;;;;;5010571;28;20806;-66
2022/03/31 03:19:06;;;;;;;21.37;17.23;;;8.10;99.90;;;;;;5010703;28;20449;-67
2022/03/31 03:21:31;;;;;;;23.50;18.07;;;8.00;99.90;;;;;;5011623;28;20830;-68
2022/03/31 03:23:57;;;;;;;21.50;17.67;;;8.00;99.90;;;;;;5010824;28;20233;-68
2022/03/31 03:26:22;;;;;;;18.73;16.73;;;8.00;99.90;;;;;;5011667;28;20710;-68
2022/03/31 03:28:48;;;;;;;19.83;17.73;;;7.90;99.90;;;;;;5010405;28;20179;-69
2022/03/31 03:31:13;;;;;;;20.40;17.00;;;7.90;99.90;;;;;;5012071;28;20195;-66
2022/03/31 03:33:40;;;;;;;22.43;18.20;;;7.80;99.90;;;;;;5011289;28;20203;-69
2022/03/31 03:36:10;;;;;;;21.50;19.27;;;7.70;99.90;;;;;;5011052;28;20186;-68
2022/03/31 03:38:36;;;;;;;24.87;19.23;;;7.70;99.90;;;;;;5011305;28;20520;-68
2022/03/31 03:41:02;;;;;;;20.53;18.23;;;7.60;99.90;;;;;;5010881;28;20560;-67
2022/03/31 03:43:28;;;;;;;22.97;19.67;;;7.60;99.90;;;;;;5010558;28;20195;-68
2022/03/31 03:45:54;;;;;;;22.77;19.80;;;7.50;99.90;;;;;;5010940;28;20488;-67
2022/03/31 03:48:21;;;;;;;20.87;18.67;;;7.60;99.90;;;;;;5008572;28;20261;-67
2022/03/31 03:50:47;;;;;;;23.20;20.10;;;7.60;99.90;;;;;;5011746;28;20437;-67
2022/03/31 03:53:12;;;;;;;23.37;20.00;;;7.50;99.90;;;;;;5009880;28;20437;-67
2022/03/31 03:55:38;;;;;;;21.30;17.83;;;7.60;99.90;;;;;;5011691;28;20241;-65
2022/03/31 03:58:04;;;;;;;20.23;18.10;;;7.50;99.90;;;;;;5010674;28;20178;-65
2022/03/31 04:00:30;;;;;;;19.83;17.73;;;7.50;99.90;;;;;;5010300;28;20187;-66
2022/03/31 04:02:56;;;;;;;22.53;19.17;;;7.50;99.90;;;;;;5005608;28;20574;-66
2022/03/31 04:05:22;;;;;;;23.23;20.23;;;7.50;99.90;;;;;;5007916;28;20450;-66
2022/03/31 04:07:48;;;;;;;22.47;19.07;;;7.40;99.90;;;;;;5010561;28;20449;-67
2022/03/31 04:10:14;;;;;;;23.07;19.53;;;7.40;99.90;;;;;;5010737;28;20252;-66
2022/03/31 04:12:39;;;;;;;23.03;19.67;;;7.40;99.90;;;;;;5012213;28;20182;-66
2022/03/31 04:15:06;;;;;;;22.03;19.13;;;7.30;99.90;;;;;;5010835;28;20471;-67
2022/03/31 04:17:32;;;;;;;23.83;21.23;;;7.40;99.90;;;;;;5009373;28;20207;-66
2022/03/31 04:19:58;;;;;;;21.17;18.20;;;7.40;99.90;;;;;;5010735;28;20452;-66
2022/03/31 04:22:24;;;;;;;23.17;19.30;;;7.40;99.90;;;;;;5010866;28;20473;-66
2022/03/31 04:24:49;;;;;;;22.40;19.33;;;7.30;99.90;;;;;;5010108;28;20199;-66
2022/03/31 04:27:15;;;;;;;22.63;19.73;;;7.30;99.90;;;;;;5009346;28;20266;-66
2022/03/31 04:29:40;;;;;;;23.93;19.80;;;7.30;99.90;;;;;;5012217;28;20269;-66
2022/03/31 04:32:06;;;;;;;26.23;21.83;;;7.30;99.90;;;;;;5010510;28;20641;-66
2022/03/31 04:34:32;;;;;;;22.87;19.80;;;7.30;99.90;;;;;;5009066;28;20265;-67
2022/03/31 04:36:58;;;;;;;27.47;22.27;;;7.30;99.90;;;;;;5009314;28;20935;-65
2022/03/31 04:39:23;;;;;;;24.77;19.33;;;7.40;99.90;;;;;;5010533;28;20638;-66
2022/03/31 04:41:50;;;;;;;21.43;18.83;;;7.30;99.90;;;;;;5009318;28;20650;-66
2022/03/31 04:44:16;;;;;;;24.70;21.10;;;7.20;99.90;;;;;;5009969;28;20199;-66
2022/03/31 04:46:41;;;;;;;22.63;20.03;;;7.20;99.90;;;;;;5009830;28;20970;-66
2022/03/31 04:49:07;;;;;;;26.30;21.90;;;7.20;99.90;;;;;;5009838;28;20630;-68
2022/03/31 04:51:33;;;;;;;25.30;21.10;;;7.30;99.90;;;;;;5009401;28;20286;-66
2022/03/31 04:53:59;;;;;;;28.10;21.07;;;7.20;99.90;;;;;;5009038;28;20228;-67
2022/03/31 04:56:24;;;;;;;22.10;19.77;;;7.20;99.90;;;;;;5009915;28;20187;-67
2022/03/31 04:58:49;;;;;;;27.13;21.93;;;7.30;99.90;;;;;;5011391;28;20193;-67
2022/03/31 05:01:17;;;;;;;26.13;22.50;;;7.30;99.90;;;;;;5013155;28;20229;-66
2022/03/31 05:03:42;;;;;;;22.63;19.57;;;7.30;99.90;;;;;;5019950;28;20195;-67
2022/03/31 05:06:08;;;;;;;29.33;22.43;;;7.30;99.90;;;;;;5014650;28;20921;-66
2022/03/31 05:08:35;;;;;;;24.50;21.40;;;7.30;99.90;;;;;;5012738;28;20187;-65
2022/03/31 05:11:00;;;;;;;29.00;21.43;;;7.30;99.90;;;;;;5013031;28;20257;-66
2022/03/31 05:13:26;;;;;;;23.67;18.90;;;7.30;99.90;;;;;;5012979;28;20509;-66
2022/03/31 05:15:52;;;;;;;25.97;20.17;;;7.30;99.90;;;;;;5013277;28;20191;-66
2022/03/31 05:18:18;;;;;;;22.37;20.03;;;7.30;99.90;;;;;;5011980;28;20191;-65
2022/03/31 05:20:43;;;;;;;25.53;20.60;;;7.20;99.90;;;;;;5014113;28;20218;-65
2022/03/31 05:23:12;;;;;;;21.63;19.43;;;7.20;99.90;;;;;;5014891;28;20422;-66
2022/03/31 05:25:39;;;;;;;22.83;18.87;;;7.20;99.90;;;;;;5014778;28;20186;-65
2022/03/31 05:28:05;;;;;;;26.03;21.97;;;7.30;99.90;;;;;;5014725;28;20432;-68
2022/03/31 05:30:30;;;;;;;24.73;21.00;;;7.30;99.90;;;;;;5014650;28;20422;-67
2022/03/31 05:32:56;;;;;;;26.37;20.33;;;7.40;99.90;;;;;;5015155;28;20479;-63
2022/03/31 05:35:23;;;;;;;24.87;20.70;;;7.40;99.90;;;;;;5016621;28;20683;-67
2022/03/31 05:37:48;;;;;;;24.30;21.60;;;7.30;99.90;;;;;;5016207;28;20426;-65
2022/03/31 05:40:15;;;;;;;25.40;22.30;;;7.20;99.90;;;;;;5014315;28;20904;-65
2022/03/31 05:42:41;;;;;;;24.77;21.10;;;7.20;99.90;;;;;;5014414;28;20279;-66
2022/03/31 05:45:09;;;;;;;23.90;20.90;;;7.10;99.90;;;;;;5014414;28;20560;-66
2022/03/31 05:47:36;;;;;;;24.67;19.93;;;7.10;99.90;;;;;;5014433;28;20422;-65
2022/03/31 05:50:03;;;;;;;24.33;20.13;;;7.10;99.90;;;;;;5013065;28;20426;-64
2022/03/31 05:52:28;;;;;;;23.83;20.00;;;7.10;99.90;;;;;;5014303;28;20425;-67
2022/03/31 05:54:54;;;;;;;21.83;19.50;;;7.00;99.90;;;;;;5014167;28;20466;-65
2022/03/31 05:57:20;;;;;;;25.27;19.07;;;7.00;99.90;;;;;;5014228;28;20179;-66
2022/03/31 05:59:45;;;;;;;23.33;18.63;;;7.00;99.90;;;;;;5013896;28;20182;-66
2022/03/31 06:02:11;;;;;;;22.20;19.67;;;7.00;99.90;;;;;;5014104;28;20571;-65
2022/03/31 06:04:38;;;;;;;28.50;21.53;;;7.00;99.90;;;;;;5014059;28;20202;-65
2022/03/31 06:07:05;;;;;;;27.60;22.50;;;7.00;99.90;;;;;;5014137;28;20182;-65
2022/03/31 06:09:30;;;;;;;24.30;20.57;;;6.80;99.90;;;;;;5013423;28;20421;-65
2022/03/31 06:11:56;;;;;;;28.20;22.40;;;6.80;99.90;;;;;;5013453;28;20421;-65
2022/03/31 06:14:21;;;;;;;31.60;22.00;;;6.90;99.90;;;;;;5013890;28;20669;-65
2022/03/31 06:16:49;;;;;;;25.97;20.83;;;6.90;99.90;;;;;;5014028;28;20229;-65
2022/03/31 06:19:15;;;;;;;25.07;21.67;;;7.00;99.90;;;;;;5013595;28;20254;-67
2022/03/31 06:21:40;;;;;;;24.00;19.00;;;7.10;99.90;;;;;;5013599;28;20473;-65
2022/03/31 06:24:06;;;;;;;25.67;20.73;;;7.20;99.90;;;;;;5013726;28;20441;-66
2022/03/31 06:26:33;;;;;;;23.30;19.27;;;7.20;99.90;;;;;;5013774;28;20194;-66
2022/03/31 06:28:58;;;;;;;21.50;18.17;;;7.20;99.90;;;;;;5013425;28;20203;-66
2022/03/31 06:31:24;;;;;;;23.50;18.47;;;7.20;99.90;;;;;;5013388;28;20460;-66
2022/03/31 06:33:51;;;;;;;23.20;19.53;;;7.30;99.90;;;;;;5013661;28;20202;-65
2022/03/31 06:36:16;;;;;;;23.33;18.63;;;7.30;99.90;;;;;;5013627;28;20179;-66
2022/03/31 06:38:43;;;;;;;21.60;18.20;;;7.30;99.90;;;;;;5013186;28;20422;-65
2022/03/31 06:41:14;;;;;;;23.80;18.70;;;7.40;99.90;;;;;;5013277;28;20191;-67
2022/03/31 06:43:41;;;;;;;26.43;18.83;;;7.40;99.90;;;;;;5013405;28;20831;-65
2022/03/31 06:46:07;;;;;;;25.03;20.07;;;7.50;99.90;;;;;;5013259;28;20410;-68
2022/03/31 06:48:35;;;;;;;22.23;19.43;;;7.60;99.90;;;;;;5012966;28;20501;-65
2022/03/31 06:51:02;;;;;;;22.60;19.73;;;7.50;99.90;;;;;;5013240;28;20429;-66
2022/03/31 06:53:28;;;;;;;25.87;19.43;;;7.60;99.90;;;;;;5012956;28;20465;-66
2022/03/31 06:55:53;;;;;;;21.33;19.03;;;7.70;99.90;;;;;;5013029;28;20445;-65
2022/03/31 06:58:21;;;;;;;22.03;19.57;;;7.70;99.90;;;;;;4999593;28;20195;-69
2022/03/31 07:00:47;;;;;;;22.73;19.57;;;7.80;99.90;;;;;;4983590;28;20203;-68
2022/03/31 07:03:12;;;;;;;23.80;19.43;;;7.70;99.90;;;;;;5007648;28;20425;-66
2022/03/31 07:05:38;;;;;;;23.07;20.57;;;7.80;99.90;;;;;;5012492;28;20171;-65
2022/03/31 07:08:04;;;;;;;22.50;19.23;;;7.90;99.90;;;;;;5010014;28;20266;-69
2022/03/31 07:10:30;;;;;;;21.43;17.83;;;7.90;99.90;;;;;;5011181;28;20638;-65
2022/03/31 07:12:56;;;;;;;22.00;18.10;;;8.00;99.90;;;;;;5012796;28;20453;-65
2022/03/31 07:15:21;;;;;;;25.00;19.30;;;8.10;99.90;;;;;;5012833;28;20244;-65
2022/03/31 07:17:48;;;;;;;23.00;19.00;;;8.20;99.90;;;;;;5012799;28;20264;-66
2022/03/31 07:20:13;;;;;;;23.17;19.63;;;8.30;99.90;;;;;;5009174;28;20182;-65
2022/03/31 07:22:47;;;;;;;22.13;19.27;;;8.50;99.90;;;;;;5012562;28;20458;-65
2022/03/31 07:25:14;;;;;;;20.30;18.27;;;8.60;99.90;;;;;;5012462;28;20202;-66
2022/03/31 07:27:39;;;;;;;18.80;16.80;;;8.80;99.90;;;;;;5012663;28;20846;-66
2022/03/31 07:30:05;;;;;;;22.60;19.20;;;9.00;99.90;;;;;;5009092;28;20438;-66
2022/03/31 07:32:32;;;;;;;21.93;19.50;;;9.00;99.90;;;;;;5012529;28;20641;-67
2022/03/31 07:34:58;;;;;;;21.57;19.00;;;9.00;99.90;;;;;;5012256;28;20442;-66
2022/03/31 07:37:23;;;;;;;20.43;18.23;;;8.90;99.90;;;;;;5012463;28;20897;-65
2022/03/31 07:39:49;;;;;;;20.80;17.40;;;8.80;99.90;;;;;;5008751;28;20171;-64
2022/03/31 07:42:15;;;;;;;20.43;18.27;;;8.90;99.90;;;;;;5012286;28;20203;-66
2022/03/31 07:44:41;;;;;;;24.33;21.30;;;8.80;99.90;;;;;;5012249;28;20187;-65
2022/03/31 07:47:07;;;;;;;22.93;20.30;;;8.80;99.90;;;;;;5012182;28;20440;-65
2022/03/31 07:49:33;;;;;;;21.03;18.40;;;8.70;99.90;;;;;;5008682;28;20183;-68
2022/03/31 07:51:58;;;;;;;20.20;17.53;;;8.80;99.90;;;;;;5012090;28;20436;-64
2022/03/31 07:54:24;;;;;;;20.30;17.80;;;8.80;99.90;;;;;;5012021;28;20210;-65
2022/03/31 07:56:50;;;;;;;23.73;19.23;;;8.70;99.90;;;;;;5012058;28;20171;-67
2022/03/31 07:59:21;;;;;;;25.60;19.00;;;8.80;99.90;;;;;;5008447;28;20229;-65
2022/03/31 08:01:47;;;;;;;22.27;19.47;;;8.70;99.90;;;;;;5011935;28;20833;-65
2022/03/31 08:04:13;;;;;;;21.13;18.83;;;8.50;99.90;;;;;;5006543;28;20461;-66
2022/03/31 08:06:39;;;;;;;22.57;18.80;;;8.60;99.90;;;;;;5008405;28;20430;-66
2022/03/31 08:09:04;;;;;;;19.97;17.47;;;8.60;99.90;;;;;;5005295;28;20430;-68
2022/03/31 08:11:30;;;;;;;22.37;18.77;;;8.70;99.90;;;;;;5009094;28;20237;-66
2022/03/31 08:13:56;;;;;;;23.63;19.17;;;8.70;99.90;;;;;;5008889;28;20199;-66
2022/03/31 08:16:22;;;;;;;24.10;19.10;;;8.80;99.90;;;;;;5007365;28;20186;-64
2022/03/31 08:18:49;;;;;;;22.70;18.70;;;8.70;99.90;;;;;;5005013;28;20193;-68
2022/03/31 08:21:15;;;;;;;24.97;21.00;;;8.70;99.90;;;;;;5008441;28;20464;-66
2022/03/31 08:23:41;;;;;;;23.90;20.37;;;8.70;99.90;;;;;;5008737;28;20449;-67
2022/03/31 08:26:06;;;;;;;24.10;19.40;;;8.60;99.90;;;;;;5008659;28;20601;-65
2022/03/31 08:28:32;;;;;;;22.40;20.00;;;8.70;99.90;;;;;;5004896;28;20195;-66
2022/03/31 08:30:58;;;;;;;25.00;20.00;;;8.80;99.90;;;;;;5008618;28;20183;-66
2022/03/31 08:33:23;;;;;;;22.43;19.03;;;8.80;99.90;;;;;;5009476;28;20203;-64
2022/03/31 08:35:49;;;;;;;23.30;20.10;;;8.70;99.90;;;;;;5012595;28;20183;-70
2022/03/31 08:38:14;;;;;;;23.43;20.47;;;8.80;99.90;;;;;;5009588;28;20649;-66
2022/03/31 08:40:42;;;;;;;24.87;22.03;;;8.80;99.90;;;;;;5011832;28;20187;-66
2022/03/31 08:43:08;;;;;;;26.37;20.63;;;8.80;99.90;;;;;;5012337;28;20669;-65
2022/03/31 08:45:35;;;;;;;23.03;18.87;;;9.00;99.90;;;;;;5012495;28;20461;-65
2022/03/31 08:48:02;;;;;;;23.83;20.40;;;9.10;99.90;;;;;;5010869;28;20417;-72
2022/03/31 08:50:28;;;;;;;21.70;18.57;;;9.20;99.90;;;;;;5010045;28;20425;-65
2022/03/31 08:52:54;;;;;;;25.23;22.53;;;9.40;99.90;;;;;;5012336;28;20432;-66
2022/03/31 08:55:20;;;;;;;21.27;19.07;;;9.50;99.90;;;;;;5012163;28;20465;-66
2022/03/31 08:57:48;;;;;;;22.87;20.37;;;9.70;99.90;;;;;;5012098;28;20167;-67
2022/03/31 09:00:16;;;;;;;20.87;18.73;;;10.00;99.90;;;;;;5008399;28;20175;-67
2022/03/31 09:03:07;;;;;;;21.13;18.93;;;10.30;99.90;;;;;;5011997;28;20465;-66
2022/03/31 09:05:45;;;;;;;23.87;20.90;;;10.70;99.90;;;;;;5012051;28;20766;-67
2022/03/31 09:08:13;;;;;;;23.37;20.10;;;11.10;99.90;;;;;;5009079;28;20468;-71
2022/03/31 09:10:57;;;;;;;21.40;19.17;;;11.50;99.90;;;;;;5011289;28;20429;-69
2022/03/31 09:13:28;;;;;;;22.73;20.33;;;11.60;99.90;;;;;;5011822;28;20446;-66
2022/03/31 09:16:02;;;;;;;22.90;20.50;;;11.40;99.90;;;;;;5011724;28;20537;-66
2022/03/31 09:18:31;;;;;;;23.17;20.00;;;11.30;99.90;;;;;;5007763;28;21074;-71
2022/03/31 09:20:59;;;;;;;23.00;20.17;;;11.10;99.90;;;;;;5011291;28;20458;-65
2022/03/31 09:23:31;;;;;;;24.93;21.50;;;11.00;99.90;;;;;;5008992;28;20437;-66
2022/03/31 09:26:27;;;;;;;22.50;20.13;;;11.20;99.90;;;;;;5011432;28;20422;-68
2022/03/31 09:28:54;;;;;;;26.00;20.87;;;11.20;99.90;;;;;;5006283;28;20448;-69
2022/03/31 09:31:24;;;;;;;26.00;21.17;;;11.50;99.90;;;;;;5010177;28;20436;-66
2022/03/31 09:33:58;;;;;;;23.90;21.30;;;11.70;99.90;;;;;;5011148;28;20453;-68
2022/03/31 09:36:24;;;;;;;25.17;21.87;;;12.10;99.90;;;;;;5011207;28;20438;-68
2022/03/31 09:38:54;;;;;;;22.83;20.40;;;11.90;99.90;;;;;;5007806;28;20437;-66
2022/03/31 09:41:25;;;;;;;24.57;21.77;;;11.80;99.90;;;;;;5011240;28;20457;-68
2022/03/31 09:43:52;;;;;;;22.10;19.80;;;11.70;99.90;;;;;;5011493;28;20444;-65
2022/03/31 09:46:21;;;;;;;24.80;22.20;;;11.80;99.90;;;;;;5009859;28;20454;-66
2022/03/31 09:48:48;;;;;;;24.53;20.43;;;12.00;99.90;;;;;;5004738;28;20426;-67
2022/03/31 09:51:14;;;;;;;29.20;21.40;;;12.20;99.90;;;;;;5010999;28;20486;-66
2022/03/31 09:53:40;;;;;;;23.90;20.77;;;12.50;99.90;;;;;;5011882;28;20489;-68
2022/03/31 09:56:07;;;;;;;24.63;21.67;;;12.90;99.90;;;;;;5010696;28;20974;-68
2022/03/31 09:58:37;;;;;;;21.77;19.70;;;13.30;99.90;;;;;;5007421;28;20444;-69
2022/03/31 10:01:04;;;;;;;22.47;20.30;;;14.50;99.90;;;;;;5013004;28;20507;-70
2022/03/31 10:03:30;;;;;;;22.33;20.03;;;15.10;99.90;;;;;;5018507;28;20489;-68
2022/03/31 10:05:56;;;;;;;26.37;21.10;;;15.80;99.90;;;;;;5011685;28;20437;-69
2022/03/31 10:08:28;;;;;;;22.00;19.70;;;16.20;99.90;;;;;;5023739;28;20513;-65
2022/03/31 10:10:54;;;;;;;26.47;20.07;;;16.20;99.90;;;;;;5009407;28;20430;-67
2022/03/31 10:13:26;;;;;;;23.50;21.10;;;16.30;99.90;;;;;;5047337;28;20446;-66
2022/03/31 10:15:59;;;;;;;22.13;19.87;;;16.30;99.90;;;;;;5015762;28;20590;-67
2022/03/31 10:18:25;;;;;;;21.80;19.63;;;16.30;99.90;;;;;;5010944;28;20430;-67
2022/03/31 10:20:57;;;;;;;24.80;22.20;;;16.20;99.90;;;;;;5013474;28;20466;-66
2022/03/31 10:26:07;;;;;;;22.47;20.20;;;15.70;99.90;;;;;;5018211;28;20471;-68
2022/03/31 10:28:32;;;;;;;24.10;19.37;;;15.20;99.90;;;;;;5014493;28;20554;-68
2022/03/31 10:31:01;;;;;;;23.67;20.60;;;15.40;99.90;;;;;;5017520;28;20182;-69
2022/03/31 10:33:29;;;;;;;24.33;21.85;;;15.20;99.90;;;;;;5016804;28;20509;-68
2022/03/31 10:36:16;;;;;;;24.13;21.53;;;15.10;99.90;;;;;;5018400;28;20178;-68
2022/03/31 10:39:01;;;;;;;23.50;21.10;;;14.80;99.90;;;;;;5011620;28;20436;-67
2022/03/31 10:41:37;;;;;;;22.00;19.80;;;14.60;99.90;;;;;;5015445;28;20462;-69
2022/03/31 10:44:23;;;;;;;25.57;20.03;;;14.50;99.90;;;;;;5007145;28;20450;-66
2022/03/31 10:47:05;;;;;;;21.53;19.33;;;14.50;99.90;;;;;;5023356;28;20438;-68
2022/03/31 10:49:31;;;;;;;20.33;18.33;;;14.40;99.90;;;;;;5017033;28;20548;-68
2022/03/31 10:51:58;;;;;;;22.90;20.47;;;14.30;99.90;;;;;;5016387;28;20931;-69
2022/03/31 10:54:27;;;;;;;22.20;19.50;;;14.30;99.90;;;;;;5018829;28;20461;-67
2022/03/31 10:57:22;;;;;;;24.30;20.33;;;14.30;99.90;;;;;;5019371;28;20433;-68
2022/03/31 10:59:49;;;;;;;23.47;21.00;;;14.10;99.90;;;;;;5002590;28;20437;-68
2022/03/31 11:02:20;;;;;;;24.43;21.80;;;13.60;99.90;;;;;;5025971;28;20462;-68
2022/03/31 11:04:47;;;;;;;24.30;21.33;;;13.50;99.90;;;;;;5035530;28;20446;-68
2022/03/31 11:07:27;;;;;;;25.73;19.67;;;13.80;99.90;;;;;;5018892;28;20969;-68
2022/03/31 11:10:11;;;;;;;22.37;19.83;;;13.90;99.90;;;;;;5017063;28;20425;-68
2022/03/31 11:12:38;;;;;;;25.20;21.27;;;13.80;99.90;;;;;;5018310;28;20430;-68
2022/03/31 11:15:07;;;;;;;25.17;22.53;;;13.50;99.90;;;;;;5013036;28;20449;-68
2022/03/31 11:17:34;;;;;;;23.60;20.53;;;13.20;99.90;;;;;;5023678;28;20424;-68
2022/03/31 11:20:03;;;;;;;24.93;21.77;;;12.90;99.90;;;;;;5016470;28;20429;-69
2022/03/31 11:22:29;;;;;;;26.23;19.90;;;12.80;99.90;;;;;;5016628;28;20464;-68
2022/03/31 11:25:08;;;;;;;30.70;26.10;;;12.90;99.90;;;;;;5018904;28;20433;-69
2022/03/31 11:27:36;;;;;;;25.07;19.40;;;12.90;99.90;;;;;;5016115;28;20445;-68
2022/03/31 11:30:13;;;;;;;24.73;21.80;;;13.00;99.90;;;;;;5013080;28;20461;-67
2022/03/31 11:32:41;;;;;;;25.50;22.07;;;12.90;99.90;;;;;;5014468;28;20523;-68
2022/03/31 11:35:14;;;;;;;24.77;21.70;;;12.80;99.90;;;;;;5013800;28;20903;-68
2022/03/31 11:37:54;;;;;;;26.27;23.07;;;12.80;99.90;;;;;;5016244;28;20417;-68
2022/03/31 11:40:23;;;;;;;26.57;23.10;;;12.70;99.90;;;;;;5014293;28;20429;-70
2022/03/31 11:42:51;;;;;;;27.13;22.90;;;12.90;99.90;;;;;;5015329;28;20484;-68
2022/03/31 11:45:31;;;;;;;26.37;22.40;;;12.90;99.90;;;;;;5023176;28;20441;-68
2022/03/31 11:48:08;;;;;;;23.60;21.10;;;12.90;99.90;;;;;;5021725;28;20452;-66
2022/03/31 11:50:40;;;;;;;23.73;21.23;;;13.30;99.90;;;;;;5020185;28;20428;-68
2022/03/31 11:53:20;;;;;;;26.10;22.80;;;13.50;99.90;;;;;;5012963;28;20434;-68
2022/03/31 11:55:59;;;;;;;28.00;23.50;;;13.50;99.90;;;;;;5014588;28;20479;-68
2022/03/31 12:05:43;;;;;;;23.20;20.70;;;13.20;99.90;;;;;;4973277;28;20508;-66
2022/03/31 12:08:09;;;;;;;23.50;20.23;;;13.00;99.90;;;;;;4965561;28;20429;-65
2022/03/31 12:10:51;;;;;;;23.13;20.73;;;13.00;99.90;;;;;;5035009;28;20426;-64
2022/03/31 12:16:49;;;;;;;23.80;21.30;;;13.80;99.90;;;;;;5007717;28;20581;-68
2022/03/31 12:19:14;;;;;;;22.57;20.20;;;14.20;99.90;;;;;;4999605;28;20425;-68
2022/03/31 12:21:47;;;;;;;24.83;19.87;;;14.00;99.90;;;;;;5012127;28;20461;-68
2022/03/31 12:24:14;;;;;;;22.03;19.40;;;13.70;99.90;;;;;;5011924;28;20198;-68
2022/03/31 12:26:53;;;;;;;23.73;21.20;;;13.70;99.90;;;;;;5011969;28;20410;-69
2022/03/31 12:29:20;;;;;;;22.87;20.37;;;13.50;99.90;;;;;;5007868;28;20976;-68
2022/03/31 12:31:46;;;;;;;24.10;21.50;;;13.30;99.90;;;;;;5011605;28;20932;-69
2022/03/31 12:34:12;;;;;;;22.07;19.73;;;13.20;99.90;;;;;;5011473;28;20441;-68
2022/03/31 12:36:38;;;;;;;23.23;19.63;;;12.90;99.90;;;;;;5012267;28;20206;-68
2022/03/31 12:39:05;;;;;;;21.07;18.70;;;12.70;99.90;;;;;;5008540;28;20175;-67
2022/03/31 12:41:36;;;;;;;21.67;19.37;;;12.60;99.90;;;;;;5011062;28;20218;-69
2022/03/31 12:44:11;;;;;;;24.77;20.27;;;12.50;99.90;;;;;;5011617;28;20544;-68
2022/03/31 12:46:39;;;;;;;24.17;20.70;;;12.50;99.90;;;;;;5011621;28;20421;-68
2022/03/31 12:49:08;;;;;;;24.60;21.03;;;12.60;99.90;;;;;;5005258;28;20428;-69
2022/03/31 12:51:48;;;;;;;23.50;20.27;;;12.70;99.90;;;;;;5010644;28;20429;-68